Welcome to Northern Hawkes Bay. New Zealand.
PWS Header
      nz Flag



Hit Counter


W3C Valid W3C Valid logo


    Wairoa

Select any of the Stations below to visit their websites.










Historic Data from Weather Underground
Select the location of interest below. Wairoa is the default. Please have patience, this Data is slow to load in.
Northern Hawkes Bay Historical Data
Daily Summary for March 31, 2017 Units:  Metric    English   Both
« Previous Day
Next Day »
Daily Weekly Monthly Yearly Custom
  High: Low: Average:
Temperature: 29.3 °C 13.2 °C 19.3 °C
Dew Point: 17.9 °C 13.1 °C 15.3 °C
Humidity: 99% 42% 81%
Wind Speed: 9.7km/h 0.0km/h 1.5km/h
Wind Gust: 14.8km/h - -
Wind- - SSW
Pressure: 1019.9 hPa 1016.8 hPa -
Precipitation: 0.0 mm    
Historical Graphs
 
 
Tabular Data for March 31, 2017
Time Temperature Dew Point Pressure Wind Wind Speed Wind Gust Humidity Rainfall Rate (Hourly) solar
00:05 16.9 °C 15.6 °C 1018.2 hPa Calm     92% 0.0 mm 0 W/m2
00:11 16.8 °C 15.5 °C 1018.5 hPa Calm     92% 0.0 mm 0 W/m2
00:17 16.7 °C 15.4 °C 1018.5 hPa Calm     92% 0.0 mm 0 W/m2
00:23 16.5 °C 15.2 °C 1018.5 hPa Calm     92% 0.0 mm 0 W/m2
00:29 16.4 °C 15.3 °C 1018.5 hPa Calm     93% 0.0 mm 0 W/m2
00:35 16.3 °C 15.2 °C 1018.8 hPa NW 1.1 km/h 5.0 km/h 93% 0.0 mm 0 W/m2
00:41 16.3 °C 15.3 °C 1018.5 hPa Calm   7.2 km/h 94% 0.0 mm 0 W/m2
00:47 16.2 °C 15.2 °C 1018.5 hPa Calm   6.1 km/h 94% 0.0 mm 0 W/m2
00:53 16.2 °C 15.2 °C 1018.5 hPa Calm     94% 0.0 mm 0 W/m2
01:00 16.2 °C 15.2 °C 1018.5 hPa Calm     94% 0.0 mm 0 W/m2
01:05 16.1 °C 15.2 °C 1018.5 hPa Calm     94% 0.0 mm 0 W/m2
01:11 15.9 °C 15.1 °C 1018.5 hPa Calm     95% 0.0 mm 0 W/m2
01:17 15.7 °C 14.9 °C 1018.5 hPa Calm     95% 0.0 mm 0 W/m2
01:23 15.7 °C 14.9 °C 1018.5 hPa Calm     95% 0.0 mm 0 W/m2
01:29 15.7 °C 14.9 °C 1018.5 hPa Calm     95% 0.0 mm 0 W/m2
01:35 15.6 °C 15.0 °C 1018.8 hPa Calm     96% 0.0 mm 0 W/m2
01:41 15.5 °C 14.9 °C 1018.5 hPa Calm     96% 0.0 mm 0 W/m2
01:47 15.4 °C 14.8 °C 1018.5 hPa Calm     96% 0.0 mm 0 W/m2
01:53 15.4 °C 14.8 °C 1018.5 hPa Calm     96% 0.0 mm 0 W/m2
01:59 15.3 °C 14.7 °C 1018.8 hPa Calm     96% 0.0 mm 0 W/m2
02:05 15.3 °C 14.7 °C 1018.5 hPa Calm     96% 0.0 mm 0 W/m2
02:11 15.3 °C 14.7 °C 1018.5 hPa Calm     96% 0.0 mm 0 W/m2
02:17 15.3 °C 14.8 °C 1018.8 hPa Calm     97% 0.0 mm 0 W/m2
02:23 15.2 °C 14.7 °C 1018.8 hPa Calm     97% 0.0 mm 0 W/m2
02:30 15.1 °C 14.6 °C 1018.8 hPa Calm     97% 0.0 mm 0 W/m2
02:35 15.1 °C 14.6 °C 1018.8 hPa Calm     97% 0.0 mm 0 W/m2
02:41 15.0 °C 14.6 °C 1018.8 hPa Calm     97% 0.0 mm 0 W/m2
02:47 15.1 °C 14.6 °C 1018.8 hPa Calm     97% 0.0 mm 0 W/m2
02:53 15.0 °C 14.6 °C 1018.5 hPa Calm     97% 0.0 mm 0 W/m2
02:59 14.9 °C 14.8 °C 1018.2 hPa Calm     99% 0.0 mm 0 W/m2
03:05 14.9 °C 14.8 °C 1018.2 hPa Calm     99% 0.0 mm 0 W/m2
03:25 14.7 °C 14.6 °C 1018.2 hPa Calm     99% 0.0 mm 0 W/m2
03:31 14.7 °C 14.6 °C 1018.2 hPa Calm     99% 0.0 mm 0 W/m2
03:37 14.8 °C 14.7 °C 1018.2 hPa NW 3.5 km/h 5.0 km/h 99% 0.0 mm 0 W/m2
03:43 14.8 °C 14.7 °C 1018.2 hPa Calm   5.0 km/h 99% 0.0 mm 0 W/m2
03:49 14.9 °C 14.8 °C 1018.2 hPa Calm   1.1 km/h 99% 0.0 mm 0 W/m2
03:55 14.8 °C 14.7 °C 1018.2 hPa Calm     99% 0.0 mm 0 W/m2
04:01 14.8 °C 14.7 °C 1018.2 hPa Calm     99% 0.0 mm 0 W/m2
04:07 14.8 °C 14.7 °C 1018.2 hPa Calm     99% 0.0 mm 0 W/m2
04:13 14.7 °C 14.6 °C 1018.2 hPa Calm     99% 0.0 mm 0 W/m2
04:19 14.6 °C 14.4 °C 1018.2 hPa Calm     99% 0.0 mm 0 W/m2
04:25 14.5 °C 14.3 °C 1018.2 hPa Calm     99% 0.0 mm 0 W/m2
04:31 14.4 °C 14.3 °C 1018.2 hPa Calm     99% 0.0 mm 0 W/m2
04:37 14.4 °C 14.3 °C 1018.2 hPa Calm     99% 0.0 mm 0 W/m2
04:43 14.4 °C 14.3 °C 1017.8 hPa Calm     99% 0.0 mm 0 W/m2
04:49 14.3 °C 14.2 °C 1017.8 hPa Calm     99% 0.0 mm 0 W/m2
04:55 14.2 °C 14.1 °C 1017.8 hPa Calm     99% 0.0 mm 0 W/m2
05:03 14.0 °C 13.8 °C 1017.8 hPa Calm     99% 0.0 mm 0 W/m2
05:09 14.0 °C 13.8 °C 1017.8 hPa Calm     99% 0.0 mm 0 W/m2
05:15 13.9 °C 13.8 °C 1018.2 hPa Calm     99% 0.0 mm 0 W/m2
05:21 13.8 °C 13.7 °C 1018.2 hPa Calm     99% 0.0 mm 0 W/m2
05:39 13.7 °C 13.6 °C 1018.2 hPa Calm     99% 0.0 mm 0 W/m2
05:45 13.6 °C 13.4 °C 1018.2 hPa Calm     99% 0.0 mm 0 W/m2
05:51 13.5 °C 13.3 °C 1018.2 hPa Calm     99% 0.0 mm 0 W/m2
05:57 13.5 °C 13.3 °C 1018.2 hPa Calm     99% 0.0 mm 0 W/m2
06:03 13.4 °C 13.3 °C 1018.2 hPa Calm     99% 0.0 mm 0 W/m2
06:09 13.4 °C 13.3 °C 1018.5 hPa Calm     99% 0.0 mm 0 W/m2
06:15 13.3 °C 13.2 °C 1018.5 hPa Calm     99% 0.0 mm 0 W/m2
06:21 13.3 °C 13.2 °C 1018.5 hPa Calm     99% 0.0 mm 0 W/m2
06:27 13.3 °C 13.2 °C 1018.5 hPa Calm     99% 0.0 mm 0 W/m2
06:33 13.3 °C 13.2 °C 1018.5 hPa Calm     99% 0.0 mm 0 W/m2
06:39 13.2 °C 13.1 °C 1018.8 hPa Calm   3.5 km/h 99% 0.0 mm 0 W/m2
06:45 13.2 °C 13.1 °C 1018.8 hPa NW 2.6 km/h 5.0 km/h 99% 0.0 mm 0 W/m2
06:51 13.2 °C 13.1 °C 1018.5 hPa Calm   5.0 km/h 99% 0.0 mm 0 W/m2
06:57 13.3 °C 13.2 °C 1018.5 hPa NW 2.6 km/h 6.1 km/h 99% 0.0 mm 0 W/m2
07:03 13.3 °C 13.2 °C 1018.5 hPa Calm   7.2 km/h 99% 0.0 mm 0 W/m2
07:09 13.2 °C 13.1 °C 1018.5 hPa Calm   7.2 km/h 99% 0.0 mm 0 W/m2
07:11 13.2 °C 13.1 °C 1018.5 hPa NW 2.6 km/h 7.2 km/h 99% 0.0 mm 0 W/m2
07:17 13.3 °C 13.2 °C 1018.5 hPa Calm   7.2 km/h 99% 0.0 mm 0 W/m2
07:23 13.3 °C 13.2 °C 1018.5 hPa NNW 3.5 km/h 9.7 km/h 99% 0.0 mm 3 W/m2
07:29 13.3 °C 13.2 °C 1018.8 hPa NW 2.6 km/h 9.7 km/h 99% 0.0 mm 6 W/m2
07:35 13.3 °C 13.2 °C 1018.8 hPa NW 5.0 km/h 7.2 km/h 99% 0.0 mm 11 W/m2
07:41 13.3 °C 13.2 °C 1018.8 hPa NNW 1.1 km/h 7.2 km/h 99% 0.0 mm 14 W/m2
07:47 13.3 °C 13.2 °C 1018.8 hPa NW 3.5 km/h 7.2 km/h 99% 0.0 mm 17 W/m2
07:53 13.4 °C 13.3 °C 1018.8 hPa Calm   6.1 km/h 99% 0.0 mm 81 W/m2
07:59 13.9 °C 13.8 °C 1018.8 hPa Calm   6.1 km/h 99% 0.0 mm 100 W/m2
08:05 14.2 °C 14.1 °C 1018.8 hPa Calm   5.0 km/h 99% 0.0 mm 119 W/m2
08:11 14.5 °C 14.3 °C 1018.8 hPa NNW 3.5 km/h 7.2 km/h 99% 0.0 mm 134 W/m2
08:17 14.7 °C 14.6 °C 1019.2 hPa NNW 2.6 km/h 7.2 km/h 99% 0.0 mm 157 W/m2
08:23 15.1 °C 14.9 °C 1018.8 hPa Calm   9.7 km/h 99% 0.0 mm 173 W/m2
08:29 15.4 °C 15.3 °C 1018.8 hPa Calm   9.7 km/h 99% 0.0 mm 198 W/m2
08:35 15.9 °C 15.4 °C 1019.2 hPa NW 1.1 km/h 9.7 km/h 97% 0.0 mm 220 W/m2
08:41 16.1 °C 15.0 °C 1019.2 hPa NW 5.0 km/h 8.7 km/h 93% 0.0 mm 238 W/m2
08:47 16.3 °C 14.8 °C 1019.5 hPa NW 5.0 km/h 8.7 km/h 91% 0.0 mm 250 W/m2
08:53 16.6 °C 14.9 °C 1019.5 hPa NW 3.5 km/h 8.7 km/h 90% 0.0 mm 258 W/m2
08:59 16.9 °C 14.9 °C 1019.5 hPa NW 3.5 km/h 9.7 km/h 88% 0.0 mm 265 W/m2
09:05 17.1 °C 14.7 °C 1019.5 hPa Calm   8.7 km/h 86% 0.0 mm 282 W/m2
09:11 17.2 °C 14.7 °C 1019.5 hPa Calm   9.7 km/h 85% 0.0 mm 303 W/m2
09:17 17.4 °C 14.7 °C 1019.5 hPa NNW 5.0 km/h 9.7 km/h 84% 0.0 mm 319 W/m2
09:25 18.2 °C 15.1 °C 1019.5 hPa North 2.6 km/h 8.7 km/h 82% 0.0 mm 323 W/m2
09:31 18.4 °C 14.7 °C 1019.5 hPa North 6.1 km/h 9.7 km/h 79% 0.0 mm 326 W/m2
09:37 18.8 °C 15.3 °C 1019.5 hPa Calm   9.7 km/h 80% 0.0 mm 343 W/m2
09:43 19.3 °C 15.0 °C 1019.5 hPa NNE 1.1 km/h 6.1 km/h 76% 0.0 mm 348 W/m2
09:49 19.2 °C 14.7 °C 1019.5 hPa NNE 3.5 km/h 9.7 km/h 75% 0.0 mm 349 W/m2
09:55 20.0 °C 15.4 °C 1019.5 hPa Calm   9.7 km/h 75% 0.0 mm 355 W/m2
10:01 20.5 °C 15.3 °C 1019.5 hPa Calm   1.1 km/h 72% 0.0 mm 361 W/m2
10:07 21.0 °C 14.9 °C 1019.9 hPa Calm     68% 0.0 mm 369 W/m2
10:13 21.5 °C 15.6 °C 1019.5 hPa Calm     69% 0.0 mm 379 W/m2
10:19 21.7 °C 15.6 °C 1019.5 hPa Calm     68% 0.0 mm 389 W/m2
10:25 21.6 °C 15.0 °C 1019.9 hPa Calm     66% 0.0 mm 400 W/m2
10:31 22.0 °C 14.9 °C 1019.9 hPa NNW 5.0 km/h 6.1 km/h 64% 0.0 mm 112 W/m2
10:37 21.7 °C 15.6 °C 1019.9 hPa Calm   6.1 km/h 68% 0.0 mm 411 W/m2
10:43 22.5 °C 15.8 °C 1019.9 hPa Calm   5.0 km/h 66% 0.0 mm 411 W/m2
10:49 23.6 °C 16.2 °C 1019.9 hPa Calm     63% 0.0 mm 382 W/m2
10:55 24.1 °C 15.3 °C 1019.9 hPa Calm   3.5 km/h 58% 0.0 mm 157 W/m2
11:01 23.7 °C 15.2 °C 1019.9 hPa Calm   3.5 km/h 59% 0.0 mm 71 W/m2
11:07 25.5 °C 15.8 °C 1019.9 hPa Calm     55% 0.0 mm 66 W/m2
11:13 24.8 °C 15.2 °C 1019.5 hPa Calm     55% 0.0 mm 63 W/m2
11:19 24.3 °C 15.3 °C 1019.9 hPa Calm     57% 0.0 mm 62 W/m2
11:25 24.5 °C 15.4 °C 1019.9 hPa Calm     57% 0.0 mm 65 W/m2
11:31 24.3 °C 15.3 °C 1019.9 hPa Calm     57% 0.0 mm 74 W/m2
11:37 25.2 °C 15.3 °C 1019.9 hPa Calm     54% 0.0 mm 268 W/m2
11:43 25.0 °C 15.1 °C 1019.5 hPa Calm     54% 0.0 mm 486 W/m2
11:49 25.0 °C 15.6 °C 1019.5 hPa South 7.2 km/h 9.7 km/h 56% 0.0 mm 509 W/m2
11:55 24.0 °C 15.2 °C 1019.5 hPa South 6.1 km/h 9.7 km/h 58% 0.0 mm 521 W/m2
12:01 23.4 °C 15.2 °C 1019.5 hPa South 8.7 km/h 11.1 km/h 60% 0.0 mm 539 W/m2
12:07 23.0 °C 15.3 °C 1019.5 hPa South 7.2 km/h 11.1 km/h 62% 0.0 mm 546 W/m2
12:13 22.5 °C 15.4 °C 1019.5 hPa South 3.5 km/h 11.1 km/h 64% 0.0 mm 555 W/m2
12:21 22.4 °C 15.0 °C 1019.5 hPa South 8.7 km/h 11.1 km/h 63% 0.0 mm 567 W/m2
12:27 22.1 °C 15.0 °C 1019.5 hPa South 8.7 km/h 12.2 km/h 64% 0.0 mm 572 W/m2
12:33 22.1 °C 15.2 °C 1019.5 hPa Calm   12.2 km/h 65% 0.0 mm 577 W/m2
12:40 22.1 °C 15.2 °C 1019.2 hPa SSE 6.1 km/h 12.2 km/h 65% 0.0 mm 574 W/m2
12:45 22.4 °C 15.0 °C 1019.2 hPa SSE 3.5 km/h 11.1 km/h 63% 0.0 mm 588 W/m2
12:51 22.9 °C 15.7 °C 1019.2 hPa SSE 5.0 km/h 11.1 km/h 64% 0.0 mm 594 W/m2
12:57 23.1 °C 16.2 °C 1019.2 hPa South 8.7 km/h 11.1 km/h 65% 0.0 mm 600 W/m2
13:03 23.0 °C 15.8 °C 1018.8 hPa South 8.7 km/h 12.2 km/h 64% 0.0 mm 602 W/m2
13:09 23.0 °C 15.8 °C 1018.8 hPa South 7.2 km/h 14.8 km/h 64% 0.0 mm 602 W/m2
13:15 22.7 °C 15.3 °C 1018.8 hPa South 7.2 km/h 14.8 km/h 63% 0.0 mm 604 W/m2
13:21 22.6 °C 14.7 °C 1019.2 hPa SSE 6.1 km/h 12.2 km/h 61% 0.0 mm 602 W/m2
13:27 22.5 °C 14.9 °C 1018.8 hPa SSE 5.0 km/h 14.8 km/h 62% 0.0 mm 602 W/m2
13:33 23.1 °C 14.9 °C 1018.8 hPa SSE 7.2 km/h 14.8 km/h 60% 0.0 mm 604 W/m2
13:39 23.3 °C 15.6 °C 1019.2 hPa SSE 8.7 km/h 14.8 km/h 62% 0.0 mm 608 W/m2
13:45 23.1 °C 15.2 °C 1018.8 hPa SSE 8.7 km/h 14.8 km/h 61% 0.0 mm 604 W/m2
13:51 23.0 °C 15.6 °C 1018.8 hPa South 9.7 km/h 14.8 km/h 63% 0.0 mm 599 W/m2
13:57 22.8 °C 15.7 °C 1018.8 hPa South 7.2 km/h 14.8 km/h 64% 0.0 mm 593 W/m2
14:03 23.3 °C 16.4 °C 1018.5 hPa SSE 3.5 km/h 14.8 km/h 65% 0.0 mm 490 W/m2
14:10 23.8 °C 16.6 °C 1018.5 hPa SSE 3.5 km/h 13.4 km/h 64% 0.0 mm 223 W/m2
14:15 24.2 °C 16.7 °C 1018.5 hPa SSE 2.6 km/h 9.7 km/h 63% 0.0 mm 589 W/m2
14:21 24.3 °C 16.8 °C 1018.5 hPa SSE 5.0 km/h 11.1 km/h 63% 0.0 mm 583 W/m2
14:27 24.8 °C 17.3 °C 1018.5 hPa SSE 3.5 km/h 11.1 km/h 63% 0.0 mm 333 W/m2
14:33 25.0 °C 17.2 °C 1018.2 hPa SE 1.1 km/h 11.1 km/h 62% 0.0 mm 149 W/m2
14:39 25.0 °C 17.2 °C 1018.2 hPa SE 1.1 km/h 11.1 km/h 62% 0.0 mm 170 W/m2
14:59 25.2 °C 17.2 °C 1017.8 hPa SSE 1.1 km/h 13.4 km/h 61% 0.0 mm 376 W/m2
15:05 25.4 °C 17.6 °C 1017.8 hPa SSE 3.5 km/h 12.2 km/h 62% 0.0 mm 508 W/m2
15:11 26.1 °C 17.2 °C 1017.8 hPa SE 5.0 km/h 12.2 km/h 58% 0.0 mm 399 W/m2
15:17 25.6 °C 17.3 °C 1017.8 hPa SSE 6.1 km/h 11.1 km/h 60% 0.0 mm 99 W/m2
15:23 25.3 °C 17.5 °C 1017.8 hPa SSE 8.7 km/h 12.2 km/h 62% 0.0 mm 62 W/m2
15:29 25.1 °C 17.1 °C 1017.8 hPa SSE 6.1 km/h 12.2 km/h 61% 0.0 mm 59 W/m2
15:35 25.2 °C 17.7 °C 1017.5 hPa SSE 2.6 km/h 11.1 km/h 63% 0.0 mm 59 W/m2
15:41 25.5 °C 16.9 °C 1017.5 hPa SSE 1.1 km/h 11.1 km/h 59% 0.0 mm 61 W/m2
15:47 26.0 °C 16.8 °C 1017.5 hPa SE 1.1 km/h 9.7 km/h 57% 0.0 mm 62 W/m2
15:53 26.1 °C 16.9 °C 1017.5 hPa SE 1.1 km/h 8.7 km/h 57% 0.0 mm 62 W/m2
15:59 26.8 °C 17.1 °C 1017.5 hPa South 5.0 km/h 9.7 km/h 55% 0.0 mm 82 W/m2
16:05 26.6 °C 17.1 °C 1017.5 hPa SE 5.0 km/h 12.2 km/h 56% 0.0 mm 316 W/m2
16:11 26.9 °C 17.1 °C 1017.2 hPa ESE 5.0 km/h 12.2 km/h 55% 0.0 mm 322 W/m2
16:17 26.4 °C 16.7 °C 1017.2 hPa SE 2.6 km/h 12.2 km/h 55% 0.0 mm 351 W/m2
16:23 27.1 °C 16.1 °C 1017.2 hPa SE 2.6 km/h 11.1 km/h 51% 0.0 mm 149 W/m2
16:29 27.1 °C 14.5 °C 1017.2 hPa ESE 2.6 km/h 9.7 km/h 46% 0.0 mm 352 W/m2
16:35 26.5 °C 14.3 °C 1017.2 hPa ESE 6.1 km/h 11.1 km/h 47% 0.0 mm 334 W/m2
16:41 25.9 °C 14.1 °C 1017.2 hPa East 2.6 km/h 11.1 km/h 48% 0.0 mm 314 W/m2
16:47 26.1 °C 13.3 °C 1017.2 hPa East 2.6 km/h 11.1 km/h 45% 0.0 mm 300 W/m2
16:53 26.8 °C 13.6 °C 1017.2 hPa Calm   9.7 km/h 44% 0.0 mm 277 W/m2
16:59 27.7 °C 14.4 °C 1017.2 hPa SE 1.1 km/h 7.2 km/h 44% 0.0 mm 258 W/m2
17:05 27.6 °C 13.6 °C 1017.2 hPa ESE 2.6 km/h 12.2 km/h 42% 0.0 mm 237 W/m2
17:11 27.4 °C 13.7 °C 1016.8 hPa SE 3.5 km/h 12.2 km/h 43% 0.0 mm 220 W/m2
17:17 26.8 °C 13.9 °C 1016.8 hPa ESE 2.6 km/h 11.1 km/h 45% 0.0 mm 197 W/m2
17:23 27.1 °C 14.2 °C 1016.8 hPa Calm   9.7 km/h 45% 0.0 mm 183 W/m2
17:29 27.7 °C 14.4 °C 1016.8 hPa SSE 1.1 km/h 7.2 km/h 44% 0.0 mm 166 W/m2
17:35 28.5 °C 15.8 °C 1017.2 hPa South 1.1 km/h 5.0 km/h 46% 0.0 mm 151 W/m2
17:41 28.5 °C 16.1 °C 1017.2 hPa Calm   6.1 km/h 47% 0.0 mm 131 W/m2
17:45 28.7 °C 15.9 °C 1016.8 hPa Calm   6.1 km/h 46% 0.0 mm 119 W/m2
17:51 28.8 °C 16.4 °C 1017.2 hPa Calm     47% 0.0 mm 108 W/m2
17:57 29.1 °C 16.0 °C 1017.2 hPa Calm     45% 0.0 mm 91 W/m2
18:03 29.3 °C 16.2 °C 1017.2 hPa Calm     45% 0.0 mm 78 W/m2
18:09 29.0 °C 16.2 °C 1016.8 hPa Calm     46% 0.0 mm 63 W/m2
18:15 28.4 °C 16.1 °C 1017.2 hPa ESE 1.1 km/h 5.0 km/h 47% 0.0 mm 54 W/m2
18:21 28.2 °C 16.2 °C 1016.8 hPa Calm   5.0 km/h 48% 0.0 mm 44 W/m2
18:27 27.7 °C 16.1 °C 1017.2 hPa Calm   3.5 km/h 49% 0.0 mm 32 W/m2
18:33 26.3 °C 16.0 °C 1017.2 hPa Calm     53% 0.0 mm 30 W/m2
18:39 26.1 °C 16.4 °C 1017.2 hPa Calm     55% 0.0 mm 26 W/m2
18:45 24.9 °C 16.9 °C 1017.2 hPa Calm     61% 0.0 mm 18 W/m2
18:51 23.9 °C 17.2 °C 1017.2 hPa Calm     66% 0.0 mm 13 W/m2
18:57 22.5 °C 16.8 °C 1017.2 hPa SW 1.1 km/h 3.5 km/h 70% 0.0 mm 8 W/m2
19:03 21.2 °C 16.6 °C 1017.2 hPa Calm   3.5 km/h 75% 0.0 mm 4 W/m2
19:09 20.5 °C 16.9 °C 1017.2 hPa Calm     80% 0.0 mm 0 W/m2
19:15 20.0 °C 17.1 °C 1017.5 hPa Calm     83% 0.0 mm 0 W/m2
19:21 19.6 °C 17.2 °C 1017.5 hPa Calm   5.0 km/h 86% 0.0 mm 0 W/m2
19:27 19.4 °C 17.6 °C 1017.5 hPa Calm   5.0 km/h 89% 0.0 mm 0 W/m2
19:33 19.4 °C 17.9 °C 1017.5 hPa Calm     91% 0.0 mm 0 W/m2
19:39 19.2 °C 17.7 °C 1017.5 hPa Calm   5.0 km/h 91% 0.0 mm 0 W/m2
19:45 19.1 °C 17.8 °C 1017.8 hPa Calm   5.0 km/h 92% 0.0 mm 0 W/m2
19:51 19.0 °C 17.8 °C 1017.8 hPa Calm   7.2 km/h 93% 0.0 mm 0 W/m2
19:57 19.1 °C 17.9 °C 1017.8 hPa SW 5.0 km/h 8.7 km/h 93% 0.0 mm 0 W/m2
20:03 19.0 °C 17.8 °C 1017.8 hPa SW 3.5 km/h 8.7 km/h 93% 0.0 mm 0 W/m2
20:09 18.9 °C 17.9 °C 1018.2 hPa Calm   6.1 km/h 94% 0.0 mm 0 W/m2
20:27 18.5 °C 17.3 °C 1018.2 hPa Calm     93% 0.0 mm 0 W/m2
20:33 18.3 °C 17.2 °C 1018.5 hPa Calm     93% 0.0 mm 0 W/m2
20:40 18.1 °C 17.1 °C 1018.5 hPa Calm     94% 0.0 mm 0 W/m2
20:45 18.0 °C 17.1 °C 1018.5 hPa Calm     94% 0.0 mm 0 W/m2
20:51 17.9 °C 16.8 °C 1018.8 hPa Calm     93% 0.0 mm 0 W/m2
20:57 17.6 °C 16.4 °C 1018.8 hPa Calm     93% 0.0 mm 0 W/m2
21:03 17.4 °C 16.3 °C 1018.8 hPa Calm     93% 0.0 mm 0 W/m2
21:25 17.1 °C 16.1 °C 1018.8 hPa Calm     94% 0.0 mm 0 W/m2
21:31 16.9 °C 16.1 °C 1018.8 hPa Calm     95% 0.0 mm 0 W/m2
21:37 16.8 °C 16.0 °C 1018.8 hPa Calm     95% 0.0 mm 0 W/m2
21:43 16.7 °C 16.1 °C 1018.8 hPa Calm     96% 0.0 mm 0 W/m2
21:49 16.7 °C 16.1 °C 1019.2 hPa Calm     96% 0.0 mm 0 W/m2
21:55 16.6 °C 15.9 °C 1019.2 hPa Calm     96% 0.0 mm 0 W/m2
22:01 16.5 °C 15.9 °C 1019.2 hPa Calm     96% 0.0 mm 0 W/m2
22:07 16.3 °C 15.7 °C 1019.2 hPa Calm     96% 0.0 mm 0 W/m2
22:13 16.2 °C 15.6 °C 1019.2 hPa Calm     96% 0.0 mm 0 W/m2
22:19 16.1 °C 15.4 °C 1019.2 hPa Calm     96% 0.0 mm 0 W/m2
22:25 16.1 °C 15.4 °C 1019.2 hPa Calm     96% 0.0 mm 0 W/m2
22:31 16.1 °C 15.4 °C 1018.8 hPa Calm     96% 0.0 mm 0 W/m2
22:37 16.0 °C 15.4 °C 1019.2 hPa Calm     96% 0.0 mm 0 W/m2
22:43 15.9 °C 15.6 °C 1019.2 hPa Calm     98% 0.0 mm 0 W/m2
22:49 15.8 °C 15.5 °C 1018.8 hPa Calm     98% 0.0 mm 0 W/m2
22:55 15.8 °C 15.5 °C 1019.2 hPa Calm     98% 0.0 mm 0 W/m2
23:01 15.7 °C 15.4 °C 1019.2 hPa Calm     98% 0.0 mm 0 W/m2
23:07 15.7 °C 15.4 °C 1019.2 hPa Calm     98% 0.0 mm 0 W/m2
23:13 15.7 °C 15.6 °C 1019.2 hPa Calm     99% 0.0 mm 0 W/m2
23:19 15.7 °C 15.6 °C 1019.2 hPa Calm     99% 0.0 mm 0 W/m2
23:25 15.6 °C 15.4 °C 1019.2 hPa Calm     99% 0.0 mm 0 W/m2
23:31 15.6 °C 15.4 °C 1019.2 hPa Calm     99% 0.0 mm 0 W/m2
23:37 15.6 °C 15.4 °C 1019.5 hPa Calm     99% 0.0 mm 0 W/m2
23:43 15.5 °C 15.3 °C 1019.2 hPa Calm     99% 0.0 mm 0 W/m2
23:49 15.5 °C 15.3 °C 1019.2 hPa Calm     99% 0.0 mm 0 W/m2
23:55 15.5 °C 15.3 °C 1019.2 hPa Calm     99% 0.0 mm 0 W/m2
Northern Hawkes Bay. New Zealand Historic Data
Compliments of Weather Underground - 2 mb